createdAt,value
2019-03-11T00:00:35.691Z,41.30
2019-03-11T00:03:05.825Z,41.70
2019-03-11T00:05:35.482Z,42.00
2019-03-11T00:08:05.324Z,42.40
2019-03-11T00:10:34.919Z,42.40
2019-03-11T00:13:04.651Z,42.70
2019-03-11T00:15:34.279Z,42.80
2019-03-11T00:18:03.875Z,42.70
2019-03-11T00:20:33.472Z,42.60
2019-03-11T00:23:03.098Z,42.60
2019-03-11T00:25:32.693Z,42.20
2019-03-11T00:28:02.316Z,42.10
2019-03-11T00:30:31.940Z,42.00
2019-03-11T00:33:01.558Z,41.70
2019-03-11T00:35:31.221Z,41.80
2019-03-11T00:38:00.843Z,41.70
2019-03-11T00:40:30.434Z,41.60
2019-03-11T00:43:00.059Z,41.60
2019-03-11T00:45:29.686Z,41.00
2019-03-11T00:48:02.239Z,40.90
2019-03-11T00:50:30.627Z,40.60
2019-03-11T00:53:00.515Z,39.60
2019-03-11T00:55:30.205Z,39.30
2019-03-11T00:57:59.798Z,38.80
2019-03-11T01:00:36.475Z,38.70
2019-03-11T01:03:06.680Z,38.70
2019-03-11T01:05:36.369Z,37.90
2019-03-11T01:08:06.031Z,37.80
2019-03-11T01:10:35.725Z,37.70
2019-03-11T01:13:05.561Z,37.00
2019-03-11T01:15:35.187Z,36.70
2019-03-11T01:18:04.915Z,37.00
2019-03-11T01:20:34.534Z,37.00
2019-03-11T01:23:04.200Z,36.80
2019-03-11T01:25:33.826Z,36.90
2019-03-11T01:28:03.417Z,36.50
2019-03-11T01:30:33.111Z,36.60
2019-03-11T01:33:02.720Z,36.50
2019-03-11T01:35:32.318Z,36.40
2019-03-11T01:38:01.938Z,36.50
2019-03-11T01:40:31.605Z,36.40
2019-03-11T01:43:01.196Z,36.70
2019-03-11T01:45:30.819Z,37.10
2019-03-11T01:48:00.413Z,37.30
2019-03-11T01:50:30.041Z,38.10
2019-03-11T01:52:59.655Z,39.20
2019-03-11T01:55:29.349Z,39.50
2019-03-11T01:57:59.013Z,39.80
2019-03-11T02:00:28.774Z,40.50
2019-03-11T02:02:58.388Z,40.70
2019-03-11T02:05:28.005Z,40.80
2019-03-11T02:07:57.618Z,41.30
2019-03-11T02:10:27.240Z,41.20
2019-03-11T02:12:56.828Z,41.30
2019-03-11T02:15:26.490Z,41.20
2019-03-11T02:17:56.114Z,40.90
2019-03-11T02:20:25.782Z,40.80
2019-03-11T02:22:55.408Z,41.10
2019-03-11T02:25:25.014Z,41.30
2019-03-11T02:27:54.629Z,41.30
2019-03-11T02:30:24.296Z,41.30
2019-03-11T02:32:53.972Z,41.80
2019-03-11T02:35:29.460Z,41.30
2019-03-11T02:37:59.313Z,41.60
2019-03-11T02:40:29.129Z,41.80
2019-03-11T02:42:58.733Z,41.20
2019-03-11T02:45:28.434Z,41.00
2019-03-11T02:47:58.095Z,41.50
2019-03-11T02:50:27.689Z,40.80
2019-03-11T02:52:57.303Z,40.90
2019-03-11T02:55:26.994Z,41.10
2019-03-11T02:57:56.591Z,41.00
2019-03-11T03:00:26.424Z,40.80
2019-03-11T03:03:09.718Z,40.90
2019-03-11T03:05:47.087Z,40.70
2019-03-11T03:08:16.702Z,41.00
2019-03-11T03:10:46.298Z,41.10
2019-03-11T03:13:15.987Z,41.30
2019-03-11T03:15:45.618Z,41.20
2019-03-11T03:18:15.222Z,41.20
2019-03-11T03:20:44.825Z,41.10
2019-03-11T03:23:14.416Z,40.80
2019-03-11T03:25:44.052Z,41.20
2019-03-11T03:28:13.648Z,40.90
2019-03-11T03:30:43.316Z,40.70
2019-03-11T03:33:12.938Z,40.40
2019-03-11T03:35:42.529Z,40.00
2019-03-11T03:38:12.156Z,40.30
2019-03-11T03:40:41.746Z,40.00
2019-03-11T03:43:11.342Z,40.00
2019-03-11T03:45:42.609Z,40.00
2019-03-11T03:48:12.316Z,40.40
2019-03-11T03:50:42.072Z,39.10
2019-03-11T03:53:11.826Z,39.50
2019-03-11T03:55:41.445Z,38.70
2019-03-11T03:58:11.138Z,37.80
2019-03-11T04:00:40.723Z,38.50
2019-03-11T04:03:10.411Z,38.40
2019-03-11T04:05:40.044Z,38.80
2019-03-11T04:08:09.724Z,37.70
2019-03-11T04:10:39.323Z,37.50
2019-03-11T04:13:09.125Z,36.60
2019-03-11T04:15:38.790Z,37.30
2019-03-11T04:18:11.354Z,37.30
2019-03-11T04:20:41.083Z,36.40
2019-03-11T04:23:10.904Z,36.50
2019-03-11T04:25:40.510Z,36.60
2019-03-11T04:28:10.306Z,36.70
2019-03-11T04:30:40.033Z,36.00
2019-03-11T04:33:09.617Z,36.20
2019-03-11T04:35:39.225Z,35.90
2019-03-11T04:38:08.825Z,35.00
2019-03-11T04:40:38.442Z,34.20
2019-03-11T04:43:08.056Z,34.20
2019-03-11T04:45:37.637Z,34.00
2019-03-11T04:48:07.321Z,32.80
2019-03-11T04:50:36.905Z,33.10
2019-03-11T04:53:06.512Z,32.40
2019-03-11T04:55:36.129Z,32.40
2019-03-11T04:58:05.788Z,32.20
2019-03-11T05:00:35.373Z,31.60
2019-03-11T05:03:05.058Z,31.70
2019-03-11T05:05:34.643Z,31.80
2019-03-11T05:08:04.257Z,31.60
2019-03-11T05:10:33.842Z,31.00
2019-03-11T05:13:03.521Z,30.90
2019-03-11T05:15:33.108Z,30.30
2019-03-11T05:18:02.857Z,31.00
2019-03-11T05:20:32.444Z,30.10
2019-03-11T05:23:02.059Z,29.90
2019-03-11T05:25:31.923Z,30.40
2019-03-11T05:28:01.539Z,30.00
2019-03-11T05:30:31.154Z,29.80
2019-03-11T05:33:00.740Z,29.80
2019-03-11T05:35:30.443Z,29.90
2019-03-11T05:38:00.029Z,30.00
2019-03-11T05:40:29.620Z,29.80
2019-03-11T05:42:59.253Z,29.70
2019-03-11T05:45:28.816Z,29.50
2019-03-11T05:47:58.431Z,29.40
2019-03-11T05:50:28.023Z,29.10
2019-03-11T05:52:57.638Z,29.20
2019-03-11T05:55:27.292Z,29.40
2019-03-11T05:57:56.909Z,28.90
2019-03-11T06:00:33.462Z,29.20
2019-03-11T06:03:03.049Z,29.20
2019-03-11T06:05:32.660Z,29.10
2019-03-11T06:08:02.270Z,29.00
2019-03-11T06:10:31.858Z,29.10
2019-03-11T06:13:01.550Z,29.50
2019-03-11T06:15:31.140Z,28.90
2019-03-11T06:18:00.723Z,29.20
2019-03-11T06:20:37.684Z,29.00
2019-03-11T06:23:08.914Z,29.20
2019-03-11T06:25:38.526Z,29.20
2019-03-11T06:28:08.136Z,29.40
2019-03-11T06:30:37.988Z,29.00
2019-03-11T06:33:07.647Z,29.60
2019-03-11T06:35:37.304Z,29.10
2019-03-11T06:38:07.080Z,29.10
2019-03-11T06:40:36.763Z,29.00
2019-03-11T06:43:06.556Z,29.60
2019-03-11T06:45:36.198Z,29.40
2019-03-11T06:48:05.781Z,29.30
2019-03-11T06:50:35.370Z,29.60
2019-03-11T06:53:04.980Z,29.30
2019-03-11T06:55:34.592Z,29.80
2019-03-11T06:58:04.209Z,29.60
2019-03-11T07:00:33.797Z,29.70
2019-03-11T07:03:03.417Z,29.50
2019-03-11T07:05:33.062Z,29.70
2019-03-11T07:08:02.676Z,29.40
2019-03-11T07:10:32.264Z,29.20
2019-03-11T07:13:01.950Z,29.50
2019-03-11T07:15:31.538Z,29.20
2019-03-11T07:18:01.154Z,29.50
2019-03-11T07:20:30.737Z,29.40
2019-03-11T07:23:00.330Z,29.70
2019-03-11T07:25:29.935Z,29.20
2019-03-11T07:27:59.554Z,29.20
2019-03-11T07:30:29.169Z,29.20
2019-03-11T07:32:58.750Z,29.30
2019-03-11T07:35:28.360Z,29.20
2019-03-11T07:37:57.956Z,28.60
2019-03-11T07:40:30.121Z,29.30
2019-03-11T07:42:58.901Z,29.00
2019-03-11T07:45:28.512Z,29.30
2019-03-11T07:47:58.097Z,29.10
2019-03-11T07:50:27.701Z,29.10
2019-03-11T07:52:57.284Z,29.00
2019-03-11T07:55:26.892Z,28.80
2019-03-11T07:57:56.725Z,28.50
2019-03-11T08:00:26.412Z,28.20
2019-03-11T08:02:55.991Z,28.40
2019-03-11T08:05:25.608Z,28.40
2019-03-11T08:07:55.244Z,28.50
2019-03-11T08:10:26.024Z,28.40
2019-03-11T08:12:55.613Z,28.30
2019-03-11T08:15:25.230Z,28.30
2019-03-11T08:17:54.827Z,28.20
2019-03-11T08:20:24.428Z,28.30
2019-03-11T08:22:54.081Z,28.50
2019-03-11T08:25:23.701Z,28.60
2019-03-11T08:27:53.371Z,28.50
2019-03-11T08:30:24.130Z,28.60
2019-03-11T08:32:53.719Z,28.10
2019-03-11T08:35:23.350Z,28.00
2019-03-11T08:37:52.957Z,27.80
2019-03-11T08:40:23.019Z,27.50
2019-03-11T08:42:52.622Z,27.40
2019-03-11T08:45:22.355Z,27.80
2019-03-11T08:47:51.982Z,27.60
2019-03-11T08:50:21.583Z,27.70
2019-03-11T08:52:51.207Z,27.60
2019-03-11T08:55:20.803Z,26.80
2019-03-11T08:57:50.465Z,27.50
2019-03-11T09:00:22.564Z,27.60
2019-03-11T09:02:52.252Z,27.00
2019-03-11T09:05:22.718Z,27.10
2019-03-11T09:07:52.297Z,26.70
2019-03-11T09:10:22.072Z,27.10
2019-03-11T09:12:51.663Z,27.20
2019-03-11T09:15:23.235Z,26.40
2019-03-11T09:17:52.859Z,27.00
2019-03-11T09:20:22.541Z,27.50
2019-03-11T09:22:52.248Z,27.70
2019-03-11T09:25:24.986Z,27.40
2019-03-11T09:27:54.611Z,27.60
2019-03-11T09:30:24.912Z,27.50
2019-03-11T09:32:54.510Z,26.10
2019-03-11T09:35:24.208Z,26.30
2019-03-11T09:37:53.800Z,25.70
2019-03-11T09:40:23.581Z,25.90
2019-03-11T09:42:53.176Z,26.40
2019-03-11T09:45:24.209Z,26.50
2019-03-11T09:47:54.691Z,26.20
2019-03-11T09:50:24.473Z,26.10
2019-03-11T09:52:54.104Z,26.30
2019-03-11T09:55:27.074Z,26.70
2019-03-11T09:57:56.819Z,26.60
2019-03-11T10:00:32.169Z,25.90
2019-03-11T10:03:01.856Z,26.40
2019-03-11T10:05:31.622Z,26.30
2019-03-11T10:08:01.388Z,26.60
2019-03-11T10:10:31.369Z,26.90
2019-03-11T10:13:00.967Z,26.60
2019-03-11T10:15:30.588Z,26.00
2019-03-11T10:18:00.206Z,26.70
2019-03-11T10:20:29.872Z,26.10
2019-03-11T10:22:59.490Z,26.40
2019-03-11T10:25:29.249Z,25.60
2019-03-11T10:27:58.864Z,25.60
2019-03-11T10:30:28.484Z,26.40
2019-03-11T10:32:58.173Z,25.80
2019-03-11T10:35:32.071Z,25.30
2019-03-11T10:37:59.276Z,26.50
2019-03-11T10:40:32.704Z,26.20
2019-03-11T10:43:02.370Z,25.70
2019-03-11T10:45:32.450Z,24.90
2019-03-11T10:48:02.294Z,25.30
2019-03-11T10:50:31.912Z,25.20
2019-03-11T10:53:01.672Z,25.50
2019-03-11T10:55:31.264Z,25.00
2019-03-11T10:58:00.956Z,25.20
2019-03-11T11:00:33.881Z,24.80
2019-03-11T11:03:03.704Z,24.80
2019-03-11T11:05:33.407Z,24.90
2019-03-11T11:08:03.066Z,24.60
2019-03-11T11:10:32.658Z,24.30
2019-03-11T11:13:02.461Z,24.40
2019-03-11T11:15:33.759Z,25.10
2019-03-11T11:18:03.516Z,24.80
2019-03-11T11:20:33.136Z,24.90
2019-03-11T11:23:02.868Z,24.80
2019-03-11T11:25:32.630Z,24.30
2019-03-11T11:28:02.304Z,23.50
2019-03-11T11:30:34.737Z,23.20
2019-03-11T11:33:04.340Z,23.00
2019-03-11T11:35:34.728Z,23.20
2019-03-11T11:38:04.463Z,23.50
2019-03-11T11:40:34.089Z,23.40
2019-03-11T11:43:03.750Z,22.60
2019-03-11T11:45:34.286Z,23.70
2019-03-11T11:48:04.020Z,23.30
2019-03-11T11:50:33.712Z,23.00
2019-03-11T11:53:03.398Z,23.10
2019-03-11T11:55:33.165Z,23.50
2019-03-11T11:58:02.860Z,23.30
2019-03-11T12:00:37.053Z,23.60
2019-03-11T12:03:06.745Z,23.80
2019-03-11T12:05:36.417Z,24.70
2019-03-11T12:08:06.244Z,24.80
2019-03-11T12:10:35.905Z,25.20
2019-03-11T12:13:05.704Z,25.00
2019-03-11T12:15:35.334Z,26.10
2019-03-11T12:18:05.157Z,27.60
2019-03-11T12:20:34.815Z,30.80
2019-03-11T12:23:04.585Z,32.00
2019-03-11T12:25:34.167Z,31.60
2019-03-11T12:28:03.926Z,31.20
2019-03-11T12:30:36.808Z,31.90
2019-03-11T12:33:06.537Z,32.60
2019-03-11T12:35:36.142Z,32.40
2019-03-11T12:38:05.905Z,32.90
2019-03-11T12:40:35.637Z,32.70
2019-03-11T12:43:05.251Z,32.90
2019-03-11T12:45:34.874Z,32.80
2019-03-11T12:48:04.536Z,33.30
2019-03-11T12:50:35.062Z,33.40
2019-03-11T12:53:04.745Z,33.00
2019-03-11T12:55:34.327Z,33.10
2019-03-11T12:58:04.011Z,33.60
2019-03-11T13:00:33.701Z,33.70
2019-03-11T13:03:03.291Z,34.20
2019-03-11T13:05:32.894Z,34.70
2019-03-11T13:08:02.505Z,34.20
2019-03-11T13:10:33.497Z,34.00
2019-03-11T13:13:03.217Z,33.90
2019-03-11T13:15:32.829Z,34.20
2019-03-11T13:18:34.623Z,34.00
2019-03-11T13:21:12.185Z,33.90
2019-03-11T13:23:41.912Z,34.20
2019-03-11T13:26:11.562Z,34.70
2019-03-11T13:28:41.186Z,34.10
2019-03-11T13:31:10.769Z,34.20
2019-03-11T13:33:40.433Z,34.10
2019-03-11T13:36:10.321Z,34.30
2019-03-11T13:38:40.000Z,34.10
2019-03-11T13:41:09.748Z,33.60
2019-03-11T13:43:39.404Z,33.50
2019-03-11T13:46:09.026Z,33.70
2019-03-11T13:48:38.677Z,33.40
2019-03-11T13:51:08.264Z,33.60
2019-03-11T13:53:38.341Z,33.50
2019-03-11T13:56:08.026Z,32.70
2019-03-11T13:58:37.612Z,32.60
2019-03-11T14:01:07.266Z,32.50
2019-03-11T14:03:36.876Z,32.40
2019-03-11T14:06:06.526Z,32.40
2019-03-11T14:08:36.140Z,32.30
2019-03-11T14:11:05.728Z,32.30
2019-03-11T14:13:35.349Z,32.70
2019-03-11T14:16:05.179Z,32.50
2019-03-11T14:18:34.762Z,31.20
2019-03-11T14:21:04.419Z,31.50
2019-03-11T14:23:34.031Z,31.20
2019-03-11T14:26:03.688Z,31.60
2019-03-11T14:28:33.358Z,31.60
2019-03-11T14:31:02.977Z,31.60
2019-03-11T14:33:32.660Z,31.40
2019-03-11T14:36:02.257Z,31.40
2019-03-11T14:38:31.858Z,31.10
2019-03-11T14:41:01.682Z,30.70
2019-03-11T14:43:31.274Z,30.80
2019-03-11T14:46:00.935Z,29.90
2019-03-11T14:48:30.548Z,29.80
2019-03-11T14:51:00.207Z,30.10
2019-03-11T14:53:29.822Z,30.50
2019-03-11T14:55:59.484Z,30.40
2019-03-11T14:58:29.896Z,30.10
2019-03-11T15:00:59.640Z,30.70
2019-03-11T15:03:29.229Z,30.70
2019-03-11T15:05:58.842Z,30.70
2019-03-11T15:08:28.525Z,30.60
2019-03-11T15:10:58.279Z,31.00
2019-03-11T15:13:27.894Z,31.00
2019-03-11T15:15:57.480Z,31.50
2019-03-11T15:18:27.155Z,31.50
2019-03-11T15:20:56.844Z,31.70
2019-03-11T15:23:26.500Z,33.10
2019-03-11T15:25:56.107Z,33.10
2019-03-11T15:28:25.833Z,32.30
2019-03-11T15:30:55.589Z,32.10
2019-03-11T15:33:25.181Z,31.60
2019-03-11T15:35:54.876Z,31.90
2019-03-11T15:38:24.530Z,32.40
2019-03-11T15:40:54.184Z,33.80
2019-03-11T15:43:23.803Z,32.00
2019-03-11T15:45:53.419Z,32.60
2019-03-11T15:48:23.121Z,32.90
2019-03-11T15:50:52.712Z,33.80
2019-03-11T15:53:22.322Z,32.10
2019-03-11T15:55:51.938Z,32.60
2019-03-11T15:58:21.518Z,32.70
2019-03-11T16:00:51.172Z,36.10
2019-03-11T16:03:20.790Z,34.00
2019-03-11T16:05:50.443Z,33.40
2019-03-11T16:08:20.054Z,33.40
2019-03-11T16:10:49.714Z,35.60
2019-03-11T16:13:19.399Z,35.70
2019-03-11T16:15:49.155Z,35.60
2019-03-11T16:18:18.750Z,33.70
2019-03-11T16:20:48.353Z,34.20
2019-03-11T16:23:18.039Z,34.00
2019-03-11T16:25:47.633Z,34.50
2019-03-11T16:28:17.247Z,35.00
2019-03-11T16:30:46.901Z,35.20
2019-03-11T16:33:16.518Z,35.20
2019-03-11T16:35:46.168Z,35.30
2019-03-11T16:38:15.777Z,35.40
2019-03-11T16:40:45.390Z,36.60
2019-03-11T16:43:14.977Z,35.60
2019-03-11T16:45:44.720Z,36.10
2019-03-11T16:48:14.376Z,35.60
2019-03-11T16:50:44.064Z,35.40
2019-03-11T16:53:13.723Z,35.60
2019-03-11T16:55:50.436Z,35.50
2019-03-11T16:58:20.107Z,35.10
2019-03-11T17:00:51.365Z,33.70
2019-03-11T17:03:21.144Z,34.30
2019-03-11T17:05:50.795Z,33.70
2019-03-11T17:08:20.404Z,33.80
2019-03-11T17:10:50.064Z,33.70
2019-03-11T17:13:19.645Z,32.90
2019-03-11T17:15:49.261Z,33.20
2019-03-11T17:18:18.878Z,32.60
2019-03-11T17:20:48.558Z,32.80
2019-03-11T17:23:18.168Z,33.50
2019-03-11T17:25:47.784Z,33.00
2019-03-11T17:28:17.371Z,33.00
2019-03-11T17:30:46.980Z,33.10
2019-03-11T17:33:16.660Z,33.40
2019-03-11T17:35:46.346Z,33.20
2019-03-11T17:38:16.026Z,32.80
2019-03-11T17:40:45.644Z,32.40
2019-03-11T17:43:15.300Z,32.60
2019-03-11T17:45:44.909Z,32.90
2019-03-11T17:48:14.668Z,33.00
2019-03-11T17:50:44.276Z,32.90
2019-03-11T17:53:19.929Z,33.00
2019-03-11T17:55:45.345Z,33.00
2019-03-11T17:58:14.962Z,32.50
2019-03-11T18:00:55.408Z,32.90
2019-03-11T18:03:20.483Z,33.30
2019-03-11T18:05:50.168Z,33.00
2019-03-11T18:08:19.820Z,33.20
2019-03-11T18:10:49.415Z,33.40
2019-03-11T18:13:19.107Z,33.50
2019-03-11T18:15:48.856Z,33.20
2019-03-11T18:18:18.543Z,33.00
2019-03-11T18:20:48.131Z,33.00
2019-03-11T18:23:17.743Z,32.70
2019-03-11T18:25:47.341Z,33.00
2019-03-11T18:28:16.950Z,33.20
2019-03-11T18:30:46.617Z,33.50
2019-03-11T18:33:16.248Z,33.30
2019-03-11T18:35:45.921Z,33.50
2019-03-11T18:38:15.561Z,33.30
2019-03-11T18:40:45.198Z,33.80
2019-03-11T18:43:20.532Z,34.00
2019-03-11T18:45:46.258Z,35.50
2019-03-11T18:48:15.828Z,37.70
2019-03-11T18:50:45.514Z,41.30
2019-03-11T18:53:15.156Z,43.20
2019-03-11T18:55:44.832Z,43.60
2019-03-11T18:58:14.425Z,44.10
2019-03-11T19:00:44.183Z,44.40
2019-03-11T19:03:13.784Z,43.60
2019-03-11T19:05:43.459Z,44.00
2019-03-11T19:08:14.575Z,44.10
2019-03-11T19:10:44.181Z,44.20
2019-03-11T19:13:13.789Z,44.10
2019-03-11T19:15:43.361Z,44.00
2019-03-11T19:18:13.017Z,43.90
2019-03-11T19:20:43.230Z,43.60
2019-03-11T19:23:12.853Z,43.20
2019-03-11T19:25:42.489Z,43.30
2019-03-11T19:28:12.055Z,44.00
2019-03-11T19:30:41.763Z,43.70
2019-03-11T19:33:11.502Z,43.60
2019-03-11T19:35:41.156Z,43.60
2019-03-11T19:38:10.858Z,42.90
2019-03-11T19:40:40.751Z,42.90
2019-03-11T19:43:10.476Z,43.10
2019-03-11T19:45:40.145Z,42.80
2019-03-11T19:48:09.753Z,42.90
2019-03-11T19:50:39.408Z,43.00
2019-03-11T19:53:09.054Z,43.30
2019-03-11T19:55:38.679Z,43.50
2019-03-11T19:58:08.276Z,43.90
2019-03-11T20:00:37.910Z,44.00
2019-03-11T20:03:07.812Z,43.90
2019-03-11T20:05:37.501Z,43.50
2019-03-11T20:08:07.057Z,43.60
2019-03-11T20:10:36.822Z,44.30
2019-03-11T20:13:06.547Z,43.80
2019-03-11T20:15:36.144Z,42.60
2019-03-11T20:18:06.701Z,42.70
2019-03-11T20:20:36.280Z,43.60
2019-03-11T20:23:06.075Z,43.40
2019-03-11T20:25:38.866Z,42.50
2019-03-11T20:28:08.680Z,42.70
2019-03-11T20:30:38.348Z,43.50
2019-03-11T20:33:08.104Z,43.50
2019-03-11T20:35:37.782Z,43.40
2019-03-11T20:38:07.353Z,42.90
2019-03-11T20:40:37.101Z,43.50
2019-03-11T20:43:06.681Z,43.90
2019-03-11T20:45:36.376Z,42.80
2019-03-11T20:48:06.097Z,43.40
2019-03-11T20:50:41.853Z,44.70
2019-03-11T20:53:07.097Z,45.10
2019-03-11T20:55:36.815Z,46.20
2019-03-11T20:58:06.431Z,46.60
2019-03-11T21:00:36.015Z,46.70
2019-03-11T21:03:06.289Z,48.70
2019-03-11T21:05:41.914Z,48.80
2019-03-11T21:08:11.721Z,49.50
2019-03-11T21:10:41.306Z,50.40
2019-03-11T21:13:11.023Z,50.80
2019-03-11T21:15:40.655Z,51.00
2019-03-11T21:18:10.239Z,51.10
2019-03-11T21:20:39.812Z,50.80
2019-03-11T21:23:09.659Z,50.80
2019-03-11T21:25:39.320Z,50.60
2019-03-11T21:28:09.045Z,50.50
2019-03-11T21:30:38.736Z,51.60
2019-03-11T21:33:08.589Z,51.40
2019-03-11T21:35:38.284Z,51.20
2019-03-11T21:38:08.169Z,50.50
2019-03-11T21:40:37.867Z,50.50
2019-03-11T21:43:07.622Z,51.00
2019-03-11T21:45:37.339Z,52.30
2019-03-11T21:48:07.078Z,50.50
2019-03-11T21:50:36.725Z,50.00
2019-03-11T21:53:06.428Z,50.10
2019-03-11T21:55:36.150Z,50.30
2019-03-11T21:58:13.260Z,49.80
2019-03-11T22:00:37.133Z,49.80
2019-03-11T22:03:06.743Z,51.60
2019-03-11T22:05:36.359Z,50.30
2019-03-11T22:08:06.013Z,50.60
2019-03-11T22:10:35.853Z,50.80
2019-03-11T22:13:05.508Z,51.30
2019-03-11T22:15:35.094Z,51.20
2019-03-11T22:18:04.704Z,51.30
2019-03-11T22:20:34.304Z,51.30
2019-03-11T22:23:03.926Z,51.10
2019-03-11T22:25:33.513Z,51.00
2019-03-11T22:28:03.109Z,51.10
2019-03-11T22:30:32.693Z,51.30
2019-03-11T22:33:02.307Z,52.10
2019-03-11T22:35:31.889Z,52.10
2019-03-11T22:38:01.507Z,53.00
2019-03-11T22:40:31.122Z,52.60
2019-03-11T22:43:00.732Z,53.20
2019-03-11T22:45:30.329Z,52.80
2019-03-11T22:47:59.935Z,53.20
2019-03-11T22:50:29.593Z,53.40
2019-03-11T22:52:59.211Z,53.50
2019-03-11T22:55:28.829Z,54.10
2019-03-11T22:57:58.411Z,54.40
2019-03-11T23:00:36.717Z,55.10
2019-03-11T23:03:07.162Z,55.40
2019-03-11T23:05:36.804Z,55.70
2019-03-11T23:08:06.578Z,56.20
2019-03-11T23:10:36.139Z,57.00
2019-03-11T23:13:05.905Z,57.10
2019-03-11T23:15:35.551Z,57.30
2019-03-11T23:18:05.173Z,56.80
2019-03-11T23:20:34.846Z,56.90
2019-03-11T23:23:04.516Z,56.70
2019-03-11T23:25:34.103Z,56.90
2019-03-11T23:28:03.714Z,57.30
2019-03-11T23:30:33.535Z,58.30
2019-03-11T23:33:03.122Z,58.50
2019-03-11T23:35:32.704Z,60.90
2019-03-11T23:38:02.317Z,59.70
2019-03-11T23:40:31.896Z,61.80
2019-03-11T23:43:01.569Z,62.30
2019-03-11T23:45:31.225Z,63.10
2019-03-11T23:48:00.849Z,64.80
2019-03-11T23:50:30.530Z,66.20
2019-03-11T23:53:00.136Z,69.00
2019-03-11T23:55:29.805Z,69.10
